Orchard, CO (80649)

9:05 AM MDT on July 29, 2016 (GMT -0600)
1 Mile North - Orchard, CO | | Change Station

Elev 4439 ft 40.35 °N, 104.11 °W | Updated 20 seconds ago

Mostly Cloudy
Mostly Cloudy
73.9 °F
Feels Like 77 °F
N
4.2
Wind Variable Wind from ENE

Today
High -- | Low -- °F
--% Chance of Precip.
Yesterday
High -- | Low -- °F
Precip. -- in
Pressure 30.19 in
Visibility 10.0 miles
Clouds Mostly Cloudy 9000 ft
Heat Index 77 °F
Dew Point 60 °F
Humidity 63%
Rainfall 0.00 in
Snow Depth Not available.
5:51 AM 8:13 PM
Waning Crescent, 21% visible
METAR KFMM 291455Z AUTO 08007KT 10SM BKN090 19/14 A3019 RMK AO2 T01940144
Pressure 30.19 in
Visibility 10.0 miles
Clouds Mostly Cloudy 9000 ft
Heat Index 77 °F
Dew Point 60 °F
Humidity 63%
Rainfall 0.00 in
Snow Depth Not available.
5:51 AM 8:13 PM
Waning Crescent, 21% visible
METAR KFMM 291455Z AUTO 08007KT 10SM BKN090 19/14 A3019 RMK AO2 T01940144

10-Day Weather Forecast

Almanac

Astronomy

Jul. 29, 2016 Rise Set
Actual Time
Civil Twilight
Nautical Twilight
Astronomical Twilight
Moon
Length of Visible Light
Length of Day
Tomorrow will be .
, % of the Moon is Illuminated

Today's Extremes

State Highs State Lows

Community

WunderPhotos

Upload Photos

1,928,345 photos uploaded!

WunderBlog® & News

Nearby

Air Quality

  Air Quality AQ Index Pollutant
Not available.

Snow Depth

Station Depth Elevation

Earthquake Activity

City Distance Mag. Time & Date
Minimum magnitude displayed is 2.5.

Coastal Water Temperatures

Place Temperature

Stations

Nearby Weather Stations

Station Location Temp. Windchill Dew Point Humidity Wind Precip. Elev Updated Type
                   

Watches & Warnings

There are currently no watches in effect.